sensor_id;sensor_type;location;lat;lon;timestamp;temperature;humidity
82901;DHT22;72673;50.822;3.280;2024-02-21T00:00:40;10.50;99.90
82901;DHT22;72673;50.822;3.280;2024-02-21T00:03:07;10.60;99.90
82901;DHT22;72673;50.822;3.280;2024-02-21T00:05:32;10.70;99.90
82901;DHT22;72673;50.822;3.280;2024-02-21T00:08:02;10.80;99.90
82901;DHT22;72673;50.822;3.280;2024-02-21T00:10:28;10.60;99.90
82901;DHT22;72673;50.822;3.280;2024-02-21T00:12:54;10.60;99.90
82901;DHT22;72673;50.822;3.280;2024-02-21T00:15:20;10.60;99.90
82901;DHT22;72673;50.822;3.280;2024-02-21T00:17:46;10.50;99.90
82901;DHT22;72673;50.822;3.280;2024-02-21T00:20:14;10.50;99.90
82901;DHT22;72673;50.822;3.280;2024-02-21T00:22:39;10.50;99.90
82901;DHT22;72673;50.822;3.280;2024-02-21T00:25:05;10.50;99.90
82901;DHT22;72673;50.822;3.280;2024-02-21T00:27:31;10.60;99.90
82901;DHT22;72673;50.822;3.280;2024-02-21T00:29:57;10.60;99.90
82901;DHT22;72673;50.822;3.280;2024-02-21T00:32:23;10.80;99.90
82901;DHT22;72673;50.822;3.280;2024-02-21T00:34:49;10.90;99.90
82901;DHT22;72673;50.822;3.280;2024-02-21T00:37:14;10.70;99.90
82901;DHT22;72673;50.822;3.280;2024-02-21T00:39:40;10.70;99.90
82901;DHT22;72673;50.822;3.280;2024-02-21T00:42:06;10.80;99.90
82901;DHT22;72673;50.822;3.280;2024-02-21T00:44:32;10.70;99.90
82901;DHT22;72673;50.822;3.280;2024-02-21T00:46:58;10.60;99.90
82901;DHT22;72673;50.822;3.280;2024-02-21T00:49:24;10.50;99.90
82901;DHT22;72673;50.822;3.280;2024-02-21T00:51:49;10.50;99.90
82901;DHT22;72673;50.822;3.280;2024-02-21T00:54:15;10.40;99.90
82901;DHT22;72673;50.822;3.280;2024-02-21T00:56:42;10.50;99.90
82901;DHT22;72673;50.822;3.280;2024-02-21T00:59:07;10.40;99.90
82901;DHT22;72673;50.822;3.280;2024-02-21T01:01:33;10.40;99.90
82901;DHT22;72673;50.822;3.280;2024-02-21T01:03:59;10.30;99.90
82901;DHT22;72673;50.822;3.280;2024-02-21T01:06:25;10.30;99.90
82901;DHT22;72673;50.822;3.280;2024-02-21T01:08:51;10.30;99.90
82901;DHT22;72673;50.822;3.280;2024-02-21T01:11:17;10.30;99.90
82901;DHT22;72673;50.822;3.280;2024-02-21T01:13:43;10.30;99.90
82901;DHT22;72673;50.822;3.280;2024-02-21T01:16:09;10.30;99.90
82901;DHT22;72673;50.822;3.280;2024-02-21T01:18:37;10.30;99.90
82901;DHT22;72673;50.822;3.280;2024-02-21T01:21:03;10.10;99.90
82901;DHT22;72673;50.822;3.280;2024-02-21T01:23:35;10.10;99.90
82901;DHT22;72673;50.822;3.280;2024-02-21T01:26:02;10.20;99.90
82901;DHT22;72673;50.822;3.280;2024-02-21T01:28:27;10.20;99.90
82901;DHT22;72673;50.822;3.280;2024-02-21T01:30:53;10.10;99.90
82901;DHT22;72673;50.822;3.280;2024-02-21T01:33:19;10.10;99.90
82901;DHT22;72673;50.822;3.280;2024-02-21T01:35:44;10.10;99.90
82901;DHT22;72673;50.822;3.280;2024-02-21T01:38:12;10.00;99.90
82901;DHT22;72673;50.822;3.280;2024-02-21T01:40:38;9.80;99.90
82901;DHT22;72673;50.822;3.280;2024-02-21T01:43:03;9.70;99.90
82901;DHT22;72673;50.822;3.280;2024-02-21T01:45:29;9.90;99.90
82901;DHT22;72673;50.822;3.280;2024-02-21T01:47:55;9.80;99.90
82901;DHT22;72673;50.822;3.280;2024-02-21T01:50:22;9.70;99.90
82901;DHT22;72673;50.822;3.280;2024-02-21T01:52:49;9.80;99.90
82901;DHT22;72673;50.822;3.280;2024-02-21T01:55:16;9.70;99.90
82901;DHT22;72673;50.822;3.280;2024-02-21T01:57:43;9.70;99.90
82901;DHT22;72673;50.822;3.280;2024-02-21T02:00:11;9.70;99.90
82901;DHT22;72673;50.822;3.280;2024-02-21T02:02:39;9.80;99.90
82901;DHT22;72673;50.822;3.280;2024-02-21T02:05:07;9.80;99.90
82901;DHT22;72673;50.822;3.280;2024-02-21T02:07:33;9.70;99.90
82901;DHT22;72673;50.822;3.280;2024-02-21T02:09:59;9.90;99.90
82901;DHT22;72673;50.822;3.280;2024-02-21T02:12:25;10.00;99.90
82901;DHT22;72673;50.822;3.280;2024-02-21T02:15:00;10.00;99.90
82901;DHT22;72673;50.822;3.280;2024-02-21T02:17:26;10.00;99.90
82901;DHT22;72673;50.822;3.280;2024-02-21T02:19:52;10.00;99.90
82901;DHT22;72673;50.822;3.280;2024-02-21T02:22:22;10.00;99.90
82901;DHT22;72673;50.822;3.280;2024-02-21T02:24:48;10.00;99.90
82901;DHT22;72673;50.822;3.280;2024-02-21T02:27:14;10.10;99.90
82901;DHT22;72673;50.822;3.280;2024-02-21T02:29:39;10.20;99.90
82901;DHT22;72673;50.822;3.280;2024-02-21T02:32:05;10.30;99.90
82901;DHT22;72673;50.822;3.280;2024-02-21T02:34:31;10.30;99.90
82901;DHT22;72673;50.822;3.280;2024-02-21T02:36:56;10.30;99.90
82901;DHT22;72673;50.822;3.280;2024-02-21T02:39:22;10.20;99.90
82901;DHT22;72673;50.822;3.280;2024-02-21T02:41:47;10.40;99.90
82901;DHT22;72673;50.822;3.280;2024-02-21T02:44:13;10.40;99.90
82901;DHT22;72673;50.822;3.280;2024-02-21T02:46:42;10.30;99.90
82901;DHT22;72673;50.822;3.280;2024-02-21T02:49:08;10.50;99.90
82901;DHT22;72673;50.822;3.280;2024-02-21T02:51:34;10.70;99.90
82901;DHT22;72673;50.822;3.280;2024-02-21T02:54:00;10.60;99.90
82901;DHT22;72673;50.822;3.280;2024-02-21T02:56:25;10.60;99.90
82901;DHT22;72673;50.822;3.280;2024-02-21T02:58:51;10.60;99.90
82901;DHT22;72673;50.822;3.280;2024-02-21T03:01:16;10.70;99.90
82901;DHT22;72673;50.822;3.280;2024-02-21T03:03:42;10.40;99.90
82901;DHT22;72673;50.822;3.280;2024-02-21T03:06:07;10.40;99.90
82901;DHT22;72673;50.822;3.280;2024-02-21T03:08:33;10.40;99.90
82901;DHT22;72673;50.822;3.280;2024-02-21T03:10:59;10.50;99.90
82901;DHT22;72673;50.822;3.280;2024-02-21T03:13:25;10.40;99.90
82901;DHT22;72673;50.822;3.280;2024-02-21T03:15:51;10.40;99.90
82901;DHT22;72673;50.822;3.280;2024-02-21T03:18:17;10.40;99.90
82901;DHT22;72673;50.822;3.280;2024-02-21T03:20:42;10.50;99.90
82901;DHT22;72673;50.822;3.280;2024-02-21T03:23:08;10.40;99.90
82901;DHT22;72673;50.822;3.280;2024-02-21T03:25:33;10.40;99.90
82901;DHT22;72673;50.822;3.280;2024-02-21T03:27:59;10.30;99.90
82901;DHT22;72673;50.822;3.280;2024-02-21T03:30:25;10.20;99.90
82901;DHT22;72673;50.822;3.280;2024-02-21T03:32:51;10.10;99.90
82901;DHT22;72673;50.822;3.280;2024-02-21T03:35:16;10.10;99.90
82901;DHT22;72673;50.822;3.280;2024-02-21T03:37:44;10.00;99.90
82901;DHT22;72673;50.822;3.280;2024-02-21T03:40:10;10.10;99.90
82901;DHT22;72673;50.822;3.280;2024-02-21T03:42:36;10.10;99.90
82901;DHT22;72673;50.822;3.280;2024-02-21T03:45:02;10.00;99.90
82901;DHT22;72673;50.822;3.280;2024-02-21T03:47:29;10.00;99.90
82901;DHT22;72673;50.822;3.280;2024-02-21T03:49:54;10.00;99.90
82901;DHT22;72673;50.822;3.280;2024-02-21T03:52:20;10.00;99.90
82901;DHT22;72673;50.822;3.280;2024-02-21T03:54:46;10.10;99.90
82901;DHT22;72673;50.822;3.280;2024-02-21T03:57:11;10.10;99.90
82901;DHT22;72673;50.822;3.280;2024-02-21T03:59:37;10.10;99.90
82901;DHT22;72673;50.822;3.280;2024-02-21T04:02:05;10.00;99.90
82901;DHT22;72673;50.822;3.280;2024-02-21T04:04:34;9.90;99.90
82901;DHT22;72673;50.822;3.280;2024-02-21T04:07:03;10.00;99.90
82901;DHT22;72673;50.822;3.280;2024-02-21T04:09:35;10.10;99.90
82901;DHT22;72673;50.822;3.280;2024-02-21T04:12:01;10.10;99.90
82901;DHT22;72673;50.822;3.280;2024-02-21T04:14:27;10.20;99.90
82901;DHT22;72673;50.822;3.280;2024-02-21T04:16:52;10.30;99.90
82901;DHT22;72673;50.822;3.280;2024-02-21T04:19:18;10.10;99.90
82901;DHT22;72673;50.822;3.280;2024-02-21T04:21:43;10.00;99.90
82901;DHT22;72673;50.822;3.280;2024-02-21T04:24:10;10.00;99.90
82901;DHT22;72673;50.822;3.280;2024-02-21T04:26:35;9.90;99.90
82901;DHT22;72673;50.822;3.280;2024-02-21T04:29:01;10.10;99.90
82901;DHT22;72673;50.822;3.280;2024-02-21T04:31:27;10.20;99.90
82901;DHT22;72673;50.822;3.280;2024-02-21T04:33:53;10.10;99.90
82901;DHT22;72673;50.822;3.280;2024-02-21T04:36:18;10.10;99.90
82901;DHT22;72673;50.822;3.280;2024-02-21T04:38:44;10.00;99.90
82901;DHT22;72673;50.822;3.280;2024-02-21T04:41:10;10.00;99.90
82901;DHT22;72673;50.822;3.280;2024-02-21T04:43:35;10.00;99.90
82901;DHT22;72673;50.822;3.280;2024-02-21T04:46:01;10.00;99.90
82901;DHT22;72673;50.822;3.280;2024-02-21T04:48:27;9.80;99.90
82901;DHT22;72673;50.822;3.280;2024-02-21T04:50:52;9.70;99.90
82901;DHT22;72673;50.822;3.280;2024-02-21T04:53:18;9.90;99.90
82901;DHT22;72673;50.822;3.280;2024-02-21T04:55:44;10.00;99.90
82901;DHT22;72673;50.822;3.280;2024-02-21T04:58:09;10.10;99.90
82901;DHT22;72673;50.822;3.280;2024-02-21T05:00:35;10.10;99.90
82901;DHT22;72673;50.822;3.280;2024-02-21T05:03:01;10.00;99.90
82901;DHT22;72673;50.822;3.280;2024-02-21T05:05:26;9.90;99.90
82901;DHT22;72673;50.822;3.280;2024-02-21T05:07:52;9.90;99.90
82901;DHT22;72673;50.822;3.280;2024-02-21T05:10:17;9.90;99.90
82901;DHT22;72673;50.822;3.280;2024-02-21T05:12:45;10.00;99.90
82901;DHT22;72673;50.822;3.280;2024-02-21T05:15:10;9.90;99.90
82901;DHT22;72673;50.822;3.280;2024-02-21T05:17:36;10.00;99.90
82901;DHT22;72673;50.822;3.280;2024-02-21T05:20:02;10.00;99.90
82901;DHT22;72673;50.822;3.280;2024-02-21T05:22:27;10.00;99.90
82901;DHT22;72673;50.822;3.280;2024-02-21T05:24:53;10.00;99.90
82901;DHT22;72673;50.822;3.280;2024-02-21T05:27:19;10.00;99.90
82901;DHT22;72673;50.822;3.280;2024-02-21T05:29:44;9.90;99.90
82901;DHT22;72673;50.822;3.280;2024-02-21T05:32:10;10.00;99.90
82901;DHT22;72673;50.822;3.280;2024-02-21T05:34:35;10.00;99.90
82901;DHT22;72673;50.822;3.280;2024-02-21T05:37:01;10.00;99.90
82901;DHT22;72673;50.822;3.280;2024-02-21T05:39:26;10.10;99.90
82901;DHT22;72673;50.822;3.280;2024-02-21T05:41:54;10.00;99.90
82901;DHT22;72673;50.822;3.280;2024-02-21T05:44:20;9.80;99.90
82901;DHT22;72673;50.822;3.280;2024-02-21T05:46:47;9.90;99.90
82901;DHT22;72673;50.822;3.280;2024-02-21T05:49:13;10.00;99.90
82901;DHT22;72673;50.822;3.280;2024-02-21T05:51:39;10.10;99.90
82901;DHT22;72673;50.822;3.280;2024-02-21T05:54:04;10.20;99.90
82901;DHT22;72673;50.822;3.280;2024-02-21T05:56:30;10.10;99.90
82901;DHT22;72673;50.822;3.280;2024-02-21T05:58:55;10.10;99.90
82901;DHT22;72673;50.822;3.280;2024-02-21T06:01:22;10.00;99.90
82901;DHT22;72673;50.822;3.280;2024-02-21T06:03:47;10.00;99.90
82901;DHT22;72673;50.822;3.280;2024-02-21T06:06:13;9.90;99.90
82901;DHT22;72673;50.822;3.280;2024-02-21T06:08:40;9.90;99.90
82901;DHT22;72673;50.822;3.280;2024-02-21T06:11:06;9.90;99.90
82901;DHT22;72673;50.822;3.280;2024-02-21T06:13:31;9.80;99.90
82901;DHT22;72673;50.822;3.280;2024-02-21T06:15:57;9.90;99.90
82901;DHT22;72673;50.822;3.280;2024-02-21T06:18:23;9.70;99.90
82901;DHT22;72673;50.822;3.280;2024-02-21T06:20:48;9.70;99.90
82901;DHT22;72673;50.822;3.280;2024-02-21T06:23:15;9.80;99.90
82901;DHT22;72673;50.822;3.280;2024-02-21T06:25:41;9.90;99.90
82901;DHT22;72673;50.822;3.280;2024-02-21T06:28:07;10.00;99.90
82901;DHT22;72673;50.822;3.280;2024-02-21T06:30:33;10.00;99.90
82901;DHT22;72673;50.822;3.280;2024-02-21T06:32:59;9.90;99.90
82901;DHT22;72673;50.822;3.280;2024-02-21T06:35:25;10.00;99.90
82901;DHT22;72673;50.822;3.280;2024-02-21T06:37:51;9.90;99.90
82901;DHT22;72673;50.822;3.280;2024-02-21T06:40:20;10.00;99.90
82901;DHT22;72673;50.822;3.280;2024-02-21T06:42:46;10.00;99.90
82901;DHT22;72673;50.822;3.280;2024-02-21T06:45:11;9.90;99.90
82901;DHT22;72673;50.822;3.280;2024-02-21T06:47:37;10.00;99.90
82901;DHT22;72673;50.822;3.280;2024-02-21T06:50:03;10.00;99.90
82901;DHT22;72673;50.822;3.280;2024-02-21T06:52:28;9.90;99.90
82901;DHT22;72673;50.822;3.280;2024-02-21T06:54:54;9.90;99.90
82901;DHT22;72673;50.822;3.280;2024-02-21T06:57:20;9.90;99.90
82901;DHT22;72673;50.822;3.280;2024-02-21T06:59:45;9.90;99.90
82901;DHT22;72673;50.822;3.280;2024-02-21T07:02:11;10.00;99.90
82901;DHT22;72673;50.822;3.280;2024-02-21T07:04:37;10.10;99.90
82901;DHT22;72673;50.822;3.280;2024-02-21T07:07:02;9.90;99.90
82901;DHT22;72673;50.822;3.280;2024-02-21T07:09:28;9.90;99.90
82901;DHT22;72673;50.822;3.280;2024-02-21T07:11:57;9.90;99.90
82901;DHT22;72673;50.822;3.280;2024-02-21T07:14:23;9.90;99.90
82901;DHT22;72673;50.822;3.280;2024-02-21T07:16:49;9.90;99.90
82901;DHT22;72673;50.822;3.280;2024-02-21T07:19:14;9.90;99.90
82901;DHT22;72673;50.822;3.280;2024-02-21T07:21:40;9.80;99.90
82901;DHT22;72673;50.822;3.280;2024-02-21T07:24:07;9.80;99.90
82901;DHT22;72673;50.822;3.280;2024-02-21T07:26:33;9.90;99.90
82901;DHT22;72673;50.822;3.280;2024-02-21T07:28:59;10.00;99.90
82901;DHT22;72673;50.822;3.280;2024-02-21T07:31:25;9.90;99.90
82901;DHT22;72673;50.822;3.280;2024-02-21T07:33:50;9.80;99.90
82901;DHT22;72673;50.822;3.280;2024-02-21T07:36:27;9.90;99.90
82901;DHT22;72673;50.822;3.280;2024-02-21T07:38:53;9.80;99.90
82901;DHT22;72673;50.822;3.280;2024-02-21T07:41:19;9.80;99.90
82901;DHT22;72673;50.822;3.280;2024-02-21T07:43:44;9.80;99.90
82901;DHT22;72673;50.822;3.280;2024-02-21T07:46:10;9.60;99.90
82901;DHT22;72673;50.822;3.280;2024-02-21T07:48:35;9.60;99.90
82901;DHT22;72673;50.822;3.280;2024-02-21T07:51:01;9.60;99.90
82901;DHT22;72673;50.822;3.280;2024-02-21T07:53:27;9.60;99.90
82901;DHT22;72673;50.822;3.280;2024-02-21T07:55:53;9.70;99.90
82901;DHT22;72673;50.822;3.280;2024-02-21T07:58:18;9.70;99.90
82901;DHT22;72673;50.822;3.280;2024-02-21T08:00:44;9.80;99.90
82901;DHT22;72673;50.822;3.280;2024-02-21T08:03:09;9.70;99.90
82901;DHT22;72673;50.822;3.280;2024-02-21T08:05:35;9.70;99.90
82901;DHT22;72673;50.822;3.280;2024-02-21T08:08:02;9.70;99.90
82901;DHT22;72673;50.822;3.280;2024-02-21T08:10:28;9.70;99.90
82901;DHT22;72673;50.822;3.280;2024-02-21T08:12:53;9.80;99.90
82901;DHT22;72673;50.822;3.280;2024-02-21T08:15:19;9.70;99.90
82901;DHT22;72673;50.822;3.280;2024-02-21T08:17:46;9.80;99.90
82901;DHT22;72673;50.822;3.280;2024-02-21T08:20:11;9.70;99.90
82901;DHT22;72673;50.822;3.280;2024-02-21T08:22:37;9.70;99.90
82901;DHT22;72673;50.822;3.280;2024-02-21T08:25:04;9.70;99.90
82901;DHT22;72673;50.822;3.280;2024-02-21T08:27:31;9.80;99.90
82901;DHT22;72673;50.822;3.280;2024-02-21T08:29:56;9.90;99.90
82901;DHT22;72673;50.822;3.280;2024-02-21T08:32:22;9.80;99.90
82901;DHT22;72673;50.822;3.280;2024-02-21T08:34:48;9.80;99.90
82901;DHT22;72673;50.822;3.280;2024-02-21T08:37:13;9.90;99.90
82901;DHT22;72673;50.822;3.280;2024-02-21T08:39:39;9.80;99.90
82901;DHT22;72673;50.822;3.280;2024-02-21T08:42:05;9.90;99.90
82901;DHT22;72673;50.822;3.280;2024-02-21T08:44:31;9.80;99.90
82901;DHT22;72673;50.822;3.280;2024-02-21T08:46:57;9.80;99.90
82901;DHT22;72673;50.822;3.280;2024-02-21T08:49:22;9.80;99.90
82901;DHT22;72673;50.822;3.280;2024-02-21T08:51:48;9.90;99.90
82901;DHT22;72673;50.822;3.280;2024-02-21T08:54:14;9.80;99.90
82901;DHT22;72673;50.822;3.280;2024-02-21T08:56:39;9.80;99.90
82901;DHT22;72673;50.822;3.280;2024-02-21T08:59:05;9.80;99.90
82901;DHT22;72673;50.822;3.280;2024-02-21T09:01:31;9.90;99.90
82901;DHT22;72673;50.822;3.280;2024-02-21T09:03:56;9.80;99.90
82901;DHT22;72673;50.822;3.280;2024-02-21T09:06:22;9.80;99.90
82901;DHT22;72673;50.822;3.280;2024-02-21T09:08:48;9.80;99.90
82901;DHT22;72673;50.822;3.280;2024-02-21T09:11:14;9.90;99.90
82901;DHT22;72673;50.822;3.280;2024-02-21T09:13:40;10.00;99.90
82901;DHT22;72673;50.822;3.280;2024-02-21T09:16:06;10.10;99.90
82901;DHT22;72673;50.822;3.280;2024-02-21T09:18:31;10.10;99.90
82901;DHT22;72673;50.822;3.280;2024-02-21T09:20:57;10.30;99.90
82901;DHT22;72673;50.822;3.280;2024-02-21T09:23:26;10.30;99.90
82901;DHT22;72673;50.822;3.280;2024-02-21T09:25:51;10.30;99.90
82901;DHT22;72673;50.822;3.280;2024-02-21T09:28:17;10.40;99.90
82901;DHT22;72673;50.822;3.280;2024-02-21T09:30:43;10.40;99.90
82901;DHT22;72673;50.822;3.280;2024-02-21T09:33:08;10.50;99.90
82901;DHT22;72673;50.822;3.280;2024-02-21T09:35:34;10.30;99.90
82901;DHT22;72673;50.822;3.280;2024-02-21T09:38:00;10.30;99.90
82901;DHT22;72673;50.822;3.280;2024-02-21T09:40:26;10.40;99.90
82901;DHT22;72673;50.822;3.280;2024-02-21T09:43:06;10.40;99.90
82901;DHT22;72673;50.822;3.280;2024-02-21T09:45:35;10.40;99.90
82901;DHT22;72673;50.822;3.280;2024-02-21T09:50:49;10.30;99.90
82901;DHT22;72673;50.822;3.280;2024-02-21T09:53:16;10.40;99.90
82901;DHT22;72673;50.822;3.280;2024-02-21T09:55:43;10.30;99.90
82901;DHT22;72673;50.822;3.280;2024-02-21T09:58:09;10.30;99.90
82901;DHT22;72673;50.822;3.280;2024-02-21T10:00:37;10.40;99.90
82901;DHT22;72673;50.822;3.280;2024-02-21T10:03:03;10.40;99.90
82901;DHT22;72673;50.822;3.280;2024-02-21T10:05:37;10.50;99.90
82901;DHT22;72673;50.822;3.280;2024-02-21T10:08:04;10.50;99.90
82901;DHT22;72673;50.822;3.280;2024-02-21T10:10:29;10.60;99.90
82901;DHT22;72673;50.822;3.280;2024-02-21T10:12:56;10.60;99.90
82901;DHT22;72673;50.822;3.280;2024-02-21T10:15:23;10.60;99.90
82901;DHT22;72673;50.822;3.280;2024-02-21T10:17:50;10.50;99.90
82901;DHT22;72673;50.822;3.280;2024-02-21T10:20:23;10.60;99.90
82901;DHT22;72673;50.822;3.280;2024-02-21T10:22:48;10.60;99.90
82901;DHT22;72673;50.822;3.280;2024-02-21T10:25:14;10.60;99.90
82901;DHT22;72673;50.822;3.280;2024-02-21T10:27:40;10.60;99.90
82901;DHT22;72673;50.822;3.280;2024-02-21T10:30:13;10.50;99.90
82901;DHT22;72673;50.822;3.280;2024-02-21T10:32:53;10.60;99.90
82901;DHT22;72673;50.822;3.280;2024-02-21T10:35:32;10.60;99.90
82901;DHT22;72673;50.822;3.280;2024-02-21T10:37:58;10.60;99.90
82901;DHT22;72673;50.822;3.280;2024-02-21T10:40:28;10.50;99.90
82901;DHT22;72673;50.822;3.280;2024-02-21T10:42:59;10.50;99.90
82901;DHT22;72673;50.822;3.280;2024-02-21T10:45:32;10.50;99.90
82901;DHT22;72673;50.822;3.280;2024-02-21T10:50:30;10.40;99.90
82901;DHT22;72673;50.822;3.280;2024-02-21T10:53:35;10.30;99.90
82901;DHT22;72673;50.822;3.280;2024-02-21T10:58:50;10.60;99.90
82901;DHT22;72673;50.822;3.280;2024-02-21T11:01:18;10.70;99.90
82901;DHT22;72673;50.822;3.280;2024-02-21T11:03:45;10.60;99.90
82901;DHT22;72673;50.822;3.280;2024-02-21T11:06:12;10.50;99.90
82901;DHT22;72673;50.822;3.280;2024-02-21T11:08:39;10.40;99.90
82901;DHT22;72673;50.822;3.280;2024-02-21T11:11:05;10.50;99.90
82901;DHT22;72673;50.822;3.280;2024-02-21T11:13:32;10.60;99.90
82901;DHT22;72673;50.822;3.280;2024-02-21T11:16:26;10.50;99.90
82901;DHT22;72673;50.822;3.280;2024-02-21T11:18:52;10.60;99.90
82901;DHT22;72673;50.822;3.280;2024-02-21T11:21:17;10.60;99.90
82901;DHT22;72673;50.822;3.280;2024-02-21T11:23:43;10.70;99.90
82901;DHT22;72673;50.822;3.280;2024-02-21T11:26:10;10.60;99.90
82901;DHT22;72673;50.822;3.280;2024-02-21T11:28:36;10.50;99.90
82901;DHT22;72673;50.822;3.280;2024-02-21T11:31:11;10.60;99.90
82901;DHT22;72673;50.822;3.280;2024-02-21T11:33:40;10.50;99.90
82901;DHT22;72673;50.822;3.280;2024-02-21T11:36:08;10.50;99.90
82901;DHT22;72673;50.822;3.280;2024-02-21T11:38:34;10.50;99.90
82901;DHT22;72673;50.822;3.280;2024-02-21T11:40:59;10.50;99.90
82901;DHT22;72673;50.822;3.280;2024-02-21T11:43:25;10.60;99.90
82901;DHT22;72673;50.822;3.280;2024-02-21T11:45:58;10.60;99.90
82901;DHT22;72673;50.822;3.280;2024-02-21T11:48:24;10.70;99.90
82901;DHT22;72673;50.822;3.280;2024-02-21T11:50:56;10.60;99.90
82901;DHT22;72673;50.822;3.280;2024-02-21T11:53:22;10.60;99.90
82901;DHT22;72673;50.822;3.280;2024-02-21T11:55:49;10.70;99.90
82901;DHT22;72673;50.822;3.280;2024-02-21T11:58:15;10.80;99.90
82901;DHT22;72673;50.822;3.280;2024-02-21T12:00:41;10.90;99.90
82901;DHT22;72673;50.822;3.280;2024-02-21T12:03:07;10.90;99.90
82901;DHT22;72673;50.822;3.280;2024-02-21T12:05:33;10.80;99.90
82901;DHT22;72673;50.822;3.280;2024-02-21T12:07:59;10.90;99.90
82901;DHT22;72673;50.822;3.280;2024-02-21T12:10:28;11.10;99.90
82901;DHT22;72673;50.822;3.280;2024-02-21T12:12:54;11.20;99.90
82901;DHT22;72673;50.822;3.280;2024-02-21T12:15:31;11.40;99.90
82901;DHT22;72673;50.822;3.280;2024-02-21T12:17:57;11.40;99.90
82901;DHT22;72673;50.822;3.280;2024-02-21T12:20:25;11.30;99.90
82901;DHT22;72673;50.822;3.280;2024-02-21T12:22:51;11.40;99.90
82901;DHT22;72673;50.822;3.280;2024-02-21T12:25:21;11.50;99.90
82901;DHT22;72673;50.822;3.280;2024-02-21T12:27:48;11.60;99.90
82901;DHT22;72673;50.822;3.280;2024-02-21T12:30:15;11.40;99.90
82901;DHT22;72673;50.822;3.280;2024-02-21T12:32:41;11.50;99.90
82901;DHT22;72673;50.822;3.280;2024-02-21T12:35:07;11.40;99.90
82901;DHT22;72673;50.822;3.280;2024-02-21T12:37:33;11.50;99.90
82901;DHT22;72673;50.822;3.280;2024-02-21T12:39:59;11.40;99.90
82901;DHT22;72673;50.822;3.280;2024-02-21T12:42:25;11.30;99.90
82901;DHT22;72673;50.822;3.280;2024-02-21T12:44:52;11.10;99.90
82901;DHT22;72673;50.822;3.280;2024-02-21T12:47:18;11.10;99.90
82901;DHT22;72673;50.822;3.280;2024-02-21T12:49:45;11.10;99.90
82901;DHT22;72673;50.822;3.280;2024-02-21T12:52:11;11.10;99.90
82901;DHT22;72673;50.822;3.280;2024-02-21T12:54:38;11.00;99.90
82901;DHT22;72673;50.822;3.280;2024-02-21T12:57:04;11.00;99.90
82901;DHT22;72673;50.822;3.280;2024-02-21T12:59:30;10.90;99.90
82901;DHT22;72673;50.822;3.280;2024-02-21T13:01:56;10.70;99.90
82901;DHT22;72673;50.822;3.280;2024-02-21T13:04:21;10.80;99.90
82901;DHT22;72673;50.822;3.280;2024-02-21T13:06:48;10.70;99.90
82901;DHT22;72673;50.822;3.280;2024-02-21T13:09:14;10.70;99.90
82901;DHT22;72673;50.822;3.280;2024-02-21T13:11:40;10.70;99.90
82901;DHT22;72673;50.822;3.280;2024-02-21T13:14:07;10.60;99.90
82901;DHT22;72673;50.822;3.280;2024-02-21T13:16:32;10.60;99.90
82901;DHT22;72673;50.822;3.280;2024-02-21T13:19:07;10.80;99.90
82901;DHT22;72673;50.822;3.280;2024-02-21T13:21:36;10.60;99.90
82901;DHT22;72673;50.822;3.280;2024-02-21T13:24:02;10.60;99.90
82901;DHT22;72673;50.822;3.280;2024-02-21T13:26:27;10.60;99.90
82901;DHT22;72673;50.822;3.280;2024-02-21T13:28:53;10.70;99.90
82901;DHT22;72673;50.822;3.280;2024-02-21T13:31:20;10.70;99.90
82901;DHT22;72673;50.822;3.280;2024-02-21T13:33:45;10.60;99.90
82901;DHT22;72673;50.822;3.280;2024-02-21T13:36:11;10.50;99.90
82901;DHT22;72673;50.822;3.280;2024-02-21T13:38:37;10.40;99.90
82901;DHT22;72673;50.822;3.280;2024-02-21T13:41:05;10.40;99.90
82901;DHT22;72673;50.822;3.280;2024-02-21T13:43:31;10.60;99.90
82901;DHT22;72673;50.822;3.280;2024-02-21T13:45:59;10.60;99.90
82901;DHT22;72673;50.822;3.280;2024-02-21T13:48:25;10.50;99.90
82901;DHT22;72673;50.822;3.280;2024-02-21T13:50:52;10.50;99.90
82901;DHT22;72673;50.822;3.280;2024-02-21T13:53:17;10.50;99.90
82901;DHT22;72673;50.822;3.280;2024-02-21T13:55:45;10.50;99.90
82901;DHT22;72673;50.822;3.280;2024-02-21T13:58:11;10.50;99.90
82901;DHT22;72673;50.822;3.280;2024-02-21T14:00:36;10.50;99.90
82901;DHT22;72673;50.822;3.280;2024-02-21T14:03:02;10.50;99.90
82901;DHT22;72673;50.822;3.280;2024-02-21T14:05:28;10.30;99.90
82901;DHT22;72673;50.822;3.280;2024-02-21T14:07:54;10.30;99.90
82901;DHT22;72673;50.822;3.280;2024-02-21T14:10:23;10.30;99.90
82901;DHT22;72673;50.822;3.280;2024-02-21T14:12:49;10.30;99.90
82901;DHT22;72673;50.822;3.280;2024-02-21T14:15:15;10.10;99.90
82901;DHT22;72673;50.822;3.280;2024-02-21T14:17:42;10.20;99.90
82901;DHT22;72673;50.822;3.280;2024-02-21T14:20:08;10.20;99.90
82901;DHT22;72673;50.822;3.280;2024-02-21T14:22:34;10.20;99.90
82901;DHT22;72673;50.822;3.280;2024-02-21T14:25:00;10.00;99.90
82901;DHT22;72673;50.822;3.280;2024-02-21T14:27:26;10.10;99.90
82901;DHT22;72673;50.822;3.280;2024-02-21T14:29:52;10.10;99.90
82901;DHT22;72673;50.822;3.280;2024-02-21T14:32:18;10.10;99.90
82901;DHT22;72673;50.822;3.280;2024-02-21T14:34:45;10.20;99.90
82901;DHT22;72673;50.822;3.280;2024-02-21T14:37:11;10.20;99.90
82901;DHT22;72673;50.822;3.280;2024-02-21T14:39:37;10.10;99.90
82901;DHT22;72673;50.822;3.280;2024-02-21T14:42:03;10.00;99.90
82901;DHT22;72673;50.822;3.280;2024-02-21T14:44:29;10.00;99.90
82901;DHT22;72673;50.822;3.280;2024-02-21T14:46:55;10.00;99.90
82901;DHT22;72673;50.822;3.280;2024-02-21T14:49:20;10.10;99.90
82901;DHT22;72673;50.822;3.280;2024-02-21T14:51:46;10.20;99.90
82901;DHT22;72673;50.822;3.280;2024-02-21T14:54:11;10.20;99.90
82901;DHT22;72673;50.822;3.280;2024-02-21T14:56:37;10.10;99.90
82901;DHT22;72673;50.822;3.280;2024-02-21T14:59:04;10.10;99.90
82901;DHT22;72673;50.822;3.280;2024-02-21T15:01:35;10.10;99.90
82901;DHT22;72673;50.822;3.280;2024-02-21T15:04:03;10.00;99.90
82901;DHT22;72673;50.822;3.280;2024-02-21T15:06:29;10.00;99.90
82901;DHT22;72673;50.822;3.280;2024-02-21T15:08:57;10.10;99.90
82901;DHT22;72673;50.822;3.280;2024-02-21T15:11:22;10.00;99.90
82901;DHT22;72673;50.822;3.280;2024-02-21T15:13:49;9.90;99.90
82901;DHT22;72673;50.822;3.280;2024-02-21T15:16:14;10.00;99.90
82901;DHT22;72673;50.822;3.280;2024-02-21T15:18:41;10.00;99.90
82901;DHT22;72673;50.822;3.280;2024-02-21T15:21:06;10.10;99.90
82901;DHT22;72673;50.822;3.280;2024-02-21T15:23:32;10.00;99.90
82901;DHT22;72673;50.822;3.280;2024-02-21T15:26:00;10.10;99.90
82901;DHT22;72673;50.822;3.280;2024-02-21T15:28:26;10.10;99.90
82901;DHT22;72673;50.822;3.280;2024-02-21T15:30:54;10.00;99.90
82901;DHT22;72673;50.822;3.280;2024-02-21T15:33:20;10.10;99.90
82901;DHT22;72673;50.822;3.280;2024-02-21T15:35:45;10.00;99.90
82901;DHT22;72673;50.822;3.280;2024-02-21T15:38:11;10.00;99.90